Time;durP1;ratioP1;P1;durP2;ratioP2;P2;SDS_P1;SDS_P2;PMS_P1;PMS_P2;Temp;Humidity;BMP_temperature;BMP_pressure;BME280_temperature;BME280_humidity;BME280_pressure;Samples;Min_cycle;Max_cycle;Signal;HPM_P1;HPM_P2
2022/12/16 00:01:41;;;;;;;;;;;;;;;18.89;50.24;100422.30;2211826;79;51459;-72
2022/12/16 00:04:42;;;;;;;;;;;;;;;18.80;50.42;100420.73;2218553;79;54001;-72
2022/12/16 00:07:44;;;;;;;;;;;;;;;18.70;50.58;100425.88;2248153;79;50366;-73
2022/12/16 00:10:54;;;;;;;;;;;;;;;18.65;50.77;100422.08;2218412;79;51461;-72
2022/12/16 00:13:56;;;;;;;;;;;;;;;18.65;50.86;100418.92;2225963;79;51623;-71
2022/12/16 00:16:57;;;;;;;;;;;;;;;18.67;50.81;100419.53;2184200;79;51496;-71
2022/12/16 00:20:01;;;;;;;;;;;;;;;18.72;50.74;100421.66;2229293;79;51435;-71
2022/12/16 00:23:02;;;;;;;;;;;;;;;18.75;50.59;100428.00;2201094;79;22399;-71
2022/12/16 00:26:04;;;;;;;;;;;;;;;18.77;50.50;100434.01;2212739;79;51540;-72
2022/12/16 00:29:05;;;;;;;;;;;;;;;18.80;50.39;100436.82;2246347;79;51577;-73
2022/12/16 00:32:07;;;;;;;;;;;;;;;18.83;50.27;100439.11;2248253;79;50753;-72
2022/12/16 00:35:09;;;;;;;;;;;;;;;18.85;50.18;100452.65;2206481;79;52683;-71
2022/12/16 00:38:10;;;;;;;;;;;;;;;18.90;50.09;100458.27;2203606;79;50744;-72
2022/12/16 00:41:12;;;;;;;;;;;;;;;18.91;50.06;100459.95;2216918;79;51544;-71
2022/12/16 00:44:13;;;;;;;;;;;;;;;18.97;49.88;100457.02;2212875;79;53751;-70
2022/12/16 00:47:15;;;;;;;;;;;;;;;18.97;49.89;100465.58;2248415;78;51399;-72
2022/12/16 00:50:17;;;;;;;;;;;;;;;19.02;49.78;100459.14;2249884;79;50714;-71
2022/12/16 00:53:19;;;;;;;;;;;;;;;19.03;49.78;100458.10;2189933;79;50684;-71
2022/12/16 00:56:21;;;;;;;;;;;;;;;19.05;49.69;100460.91;2217241;79;51540;-71
2022/12/16 00:59:22;;;;;;;;;;;;;;;19.07;49.65;100457.53;2160116;80;52383;-71
2022/12/16 01:02:24;;;;;;;;;;;;;;;19.08;49.62;100457.84;2207995;79;51434;-71
2022/12/16 01:05:25;;;;;;;;;;;;;;;19.04;49.63;100455.24;2235082;79;50381;-71
2022/12/16 01:08:27;;;;;;;;;;;;;;;19.00;49.73;100454.47;2206957;79;51461;-72
2022/12/16 01:11:29;;;;;;;;;;;;;;;18.93;49.84;100443.66;2148229;81;51824;-71
2022/12/16 01:14:30;;;;;;;;;;;;;;;18.84;50.04;100445.64;2211357;79;50414;-71
2022/12/16 01:17:32;;;;;;;;;;;;;;;18.75;50.22;100444.08;2215481;79;50358;-71
2022/12/16 01:20:33;;;;;;;;;;;;;;;18.68;50.43;100456.57;2248071;79;50735;-71
2022/12/16 01:23:35;;;;;;;;;;;;;;;18.66;50.61;100455.92;2173274;79;53284;-72
2022/12/16 01:26:38;;;;;;;;;;;;;;;18.68;50.68;100456.57;2184280;78;51511;-71
2022/12/16 01:29:39;;;;;;;;;;;;;;;18.68;50.67;100454.72;2219304;79;50328;-72
2022/12/16 01:32:41;;;;;;;;;;;;;;;18.72;50.58;100465.88;2212166;79;51409;-71
2022/12/16 01:35:42;;;;;;;;;;;;;;;18.75;50.46;100453.95;2202448;79;50989;-71
2022/12/16 01:38:44;;;;;;;;;;;;;;;18.76;50.43;100460.50;2245577;79;50305;-72
2022/12/16 01:41:46;;;;;;;;;;;;;;;18.78;50.38;100456.28;2248080;79;50371;-72
2022/12/16 01:44:48;;;;;;;;;;;;;;;18.80;50.29;100451.05;2220762;78;50228;-72
2022/12/16 01:47:50;;;;;;;;;;;;;;;18.82;50.18;100452.21;2201657;79;51042;-72
2022/12/16 01:50:51;;;;;;;;;;;;;;;18.84;50.06;100455.02;2211631;80;51584;-72
2022/12/16 01:53:54;;;;;;;;;;;;;;;18.87;49.91;100457.31;2227880;79;51526;-71
2022/12/16 01:56:57;;;;;;;;;;;;;;;18.91;49.77;100454.59;2217200;78;50781;-72
2022/12/16 01:59:59;;;;;;;;;;;;;;;18.98;49.57;100449.80;2221889;79;51986;-71
2022/12/16 02:03:01;;;;;;;;;;;;;;;19.02;49.45;100453.77;2184831;79;50784;-72
2022/12/16 02:06:03;;;;;;;;;;;;;;;19.06;49.29;100456.38;2213768;79;51519;-72
2022/12/16 02:09:05;;;;;;;;;;;;;;;19.07;49.20;100456.20;2245885;79;50782;-71
2022/12/16 02:12:08;;;;;;;;;;;;;;;19.05;49.16;100451.53;2216393;79;51112;-71
2022/12/16 02:15:28;;;;;;;;;;;;;;;19.02;49.20;100452.43;2247975;79;50301;-71
2022/12/16 02:18:43;;;;;;;;;;;;;;;18.93;49.28;100449.88;2245022;79;50282;-71
2022/12/16 02:21:47;;;;;;;;;;;;;;;18.82;49.45;100444.99;2229611;78;52320;-71
2022/12/16 02:24:54;;;;;;;;;;;;;;;18.75;49.59;100449.45;2183590;79;50201;-71
2022/12/16 02:27:59;;;;;;;;;;;;;;;18.66;49.83;100447.88;2224067;79;51493;-71
2022/12/16 02:31:21;;;;;;;;;;;;;;;18.60;49.98;100446.80;2212022;79;51508;-71
2022/12/16 02:34:30;;;;;;;;;;;;;;;18.61;50.06;100447.09;2211676;79;51579;-71
2022/12/16 02:37:33;;;;;;;;;;;;;;;18.63;50.06;100446.41;2205439;80;49376;-71
2022/12/16 02:40:45;;;;;;;;;;;;;;;18.67;50.02;100447.67;2213671;79;50501;-71
2022/12/16 02:43:51;;;;;;;;;;;;;;;18.68;50.01;100440.48;2211993;79;51562;-71
2022/12/16 02:46:53;;;;;;;;;;;;;;;18.72;49.91;100444.44;2233350;78;51739;-71
2022/12/16 02:49:55;;;;;;;;;;;;;;;18.75;49.81;100436.05;2203086;79;49584;-71
2022/12/16 02:52:57;;;;;;;;;;;;;;;18.77;49.78;100434.01;2231683;79;50398;-71
2022/12/16 02:56:17;;;;;;;;;;;;;;;18.79;49.76;100436.00;2211812;79;51541;-71
2022/12/16 02:59:29;;;;;;;;;;;;;;;18.81;49.75;100432.63;2214550;78;50003;-72
2022/12/16 03:02:49;;;;;;;;;;;;;;;18.85;49.63;100436.56;2236418;78;50696;-72
2022/12/16 03:05:51;;;;;;;;;;;;;;;18.90;49.50;100436.00;2217740;79;51619;-71
2022/12/16 03:08:54;;;;;;;;;;;;;;;18.95;49.36;100435.44;2211942;79;50342;-72
2022/12/16 03:11:55;;;;;;;;;;;;;;;18.97;49.24;100430.20;2232941;79;51532;-71
2022/12/16 03:14:57;;;;;;;;;;;;;;;18.95;49.21;100431.41;2248194;79;51477;-72
2022/12/16 03:17:59;;;;;;;;;;;;;;;18.90;49.25;100434.14;2241468;78;50263;-72
2022/12/16 03:21:01;;;;;;;;;;;;;;;18.83;49.40;100431.07;2225586;78;50373;-72
2022/12/16 03:24:06;;;;;;;;;;;;;;;18.74;49.49;100422.81;2219907;79;51547;-73
2022/12/16 03:27:12;;;;;;;;;;;;;;;18.66;49.63;100434.48;2169014;79;50156;-73
2022/12/16 03:30:17;;;;;;;;;;;;;;;18.60;49.83;100428.52;2211526;79;51577;-73
2022/12/16 03:33:20;;;;;;;;;;;;;;;18.58;49.92;100425.22;2214056;79;50441;-72
2022/12/16 03:36:22;;;;;;;;;;;;;;;18.58;49.89;100413.98;2225507;79;50464;-72
2022/12/16 03:39:25;;;;;;;;;;;;;;;18.62;49.83;100411.75;2190569;79;50141;-71
2022/12/16 03:42:27;;;;;;;;;;;;;;;18.65;49.72;100410.02;2217983;79;50665;-71
2022/12/16 03:45:30;;;;;;;;;;;;;;;18.68;49.61;100409.67;2248755;79;51537;-71
2022/12/16 03:48:32;;;;;;;;;;;;;;;18.69;49.54;100408.64;2235549;78;50444;-71
2022/12/16 03:51:34;;;;;;;;;;;;;;;18.71;49.46;100411.45;2224706;79;51751;-71
2022/12/16 03:54:36;;;;;;;;;;;;;;;18.73;49.40;100408.59;2214422;79;52043;-71
2022/12/16 03:57:37;;;;;;;;;;;;;;;18.74;49.41;100411.58;2185568;79;50297;-72
2022/12/16 04:00:39;;;;;;;;;;;;;;;18.76;49.38;100414.12;2183606;80;50803;-71
2022/12/16 04:03:40;;;;;;;;;;;;;;;18.77;49.34;100409.89;2185530;80;50961;-71
2022/12/16 04:06:42;;;;;;;;;;;;;;;18.79;49.36;100410.53;2212051;79;51506;-72
2022/12/16 04:09:43;;;;;;;;;;;;;;;18.81;49.38;100411.69;2215388;79;51651;-72
2022/12/16 04:26:04;;;;;;;;;;;;;;;18.98;48.86;100439.90;2248958;79;24614;-71
2022/12/16 04:29:05;;;;;;;;;;;;;;;18.91;49.02;100441.19;2246537;79;50650;-72
2022/12/16 04:32:07;;;;;;;;;;;;;;;18.85;49.10;100430.37;2248650;79;50413;-71
